Time;durP1;ratioP1;P1;durP2;ratioP2;P2;SDS_P1;SDS_P2;PMS_P1;PMS_P2;Temp;Humidity;BMP_temperature;BMP_pressure;BME280_temperature;BME280_humidity;BME280_pressure;Samples;Min_cycle;Max_cycle;Signal;HPM_P1;HPM_P2
2021/07/10 00:01:07;;;;;;;57.78;32.00;;;20.40;94.20;;;;;;5008456;28;20305;-70
2021/07/10 00:03:34;;;;;;;53.95;31.92;;;20.40;94.20;;;;;;5007977;28;20649;-73
2021/07/10 00:06:01;;;;;;;58.38;31.38;;;20.40;94.20;;;;;;5012960;28;20228;-70
2021/07/10 00:08:27;;;;;;;51.45;30.08;;;20.40;94.20;;;;;;5013687;28;20216;-70
2021/07/10 00:10:57;;;;;;;49.58;28.92;;;20.40;94.20;;;;;;5010238;28;20261;-70
2021/07/10 00:13:24;;;;;;;46.45;28.08;;;20.30;94.30;;;;;;4996548;28;20217;-72
2021/07/10 00:15:51;;;;;;;46.10;28.05;;;20.30;94.30;;;;;;5011880;28;20215;-71
2021/07/10 00:18:19;;;;;;;44.25;27.63;;;20.30;94.30;;;;;;5013803;28;20208;-69
2021/07/10 00:20:46;;;;;;;48.50;28.77;;;20.20;94.30;;;;;;5012780;28;20208;-69
2021/07/10 00:23:13;;;;;;;48.83;27.73;;;20.20;94.30;;;;;;5010722;28;20677;-72
2021/07/10 00:25:40;;;;;;;45.63;27.60;;;20.20;94.30;;;;;;4993667;28;20698;-71
2021/07/10 00:28:07;;;;;;;46.53;28.77;;;20.10;94.30;;;;;;5008855;28;20614;-71
2021/07/10 00:30:34;;;;;;;41.33;27.20;;;20.10;94.40;;;;;;5008109;28;20205;-69
2021/07/10 00:33:02;;;;;;;44.78;26.42;;;20.10;94.40;;;;;;5010745;28;20228;-72
2021/07/10 00:35:30;;;;;;;45.38;27.70;;;20.10;94.50;;;;;;5009898;28;20231;-72
2021/07/10 00:37:57;;;;;;;46.47;28.02;;;20.10;94.50;;;;;;5010138;28;20957;-71
2021/07/10 00:40:24;;;;;;;50.40;29.90;;;20.00;94.50;;;;;;5012386;28;20196;-71
2021/07/10 00:42:51;;;;;;;57.97;31.48;;;20.00;94.60;;;;;;5012824;28;20204;-70
2021/07/10 00:45:18;;;;;;;53.53;31.30;;;19.90;94.60;;;;;;5010155;28;20259;-72
2021/07/10 00:47:45;;;;;;;53.22;30.92;;;19.90;94.70;;;;;;5009832;28;20220;-69
2021/07/10 00:50:15;;;;;;;54.72;31.08;;;19.90;94.80;;;;;;5009521;28;20266;-71
2021/07/10 00:52:43;;;;;;;52.95;30.25;;;19.90;94.80;;;;;;5009416;28;20208;-72
2021/07/10 00:55:12;;;;;;;56.15;32.53;;;19.90;94.90;;;;;;5010307;28;20680;-72
2021/07/10 00:57:40;;;;;;;59.05;31.77;;;19.90;95.30;;;;;;5012276;28;20653;-71
2021/07/10 01:00:10;;;;;;;56.95;31.42;;;19.80;95.00;;;;;;5009928;28;20205;-71
2021/07/10 01:02:40;;;;;;;57.17;31.65;;;19.80;95.10;;;;;;5008162;28;20665;-72
2021/07/10 01:05:10;;;;;;;55.58;31.63;;;19.80;95.20;;;;;;5009824;28;20196;-72
2021/07/10 01:07:38;;;;;;;55.08;32.05;;;19.80;95.30;;;;;;4990145;28;20613;-72
2021/07/10 01:10:08;;;;;;;55.13;31.33;;;19.80;95.30;;;;;;5010513;28;20215;-69
2021/07/10 01:12:37;;;;;;;51.83;29.10;;;19.70;95.40;;;;;;5009556;28;20274;-71
2021/07/10 01:15:06;;;;;;;51.95;30.25;;;19.70;95.40;;;;;;5009286;28;20515;-70
2021/07/10 01:17:32;;;;;;;53.28;30.58;;;19.70;95.50;;;;;;5012054;28;20228;-70
2021/07/10 01:20:00;;;;;;;53.53;30.77;;;19.70;95.50;;;;;;5004031;28;20228;-71
2021/07/10 01:22:29;;;;;;;59.75;32.65;;;19.60;95.60;;;;;;5012714;28;20270;-70
2021/07/10 01:24:56;;;;;;;56.88;31.58;;;19.60;95.60;;;;;;5011192;28;20664;-70
2021/07/10 01:27:22;;;;;;;;;;;19.60;95.70;;;;;;4994139;28;20131;-71
2021/07/10 01:29:49;;;;;;;;;;;19.60;95.70;;;;;;4993286;28;20018;-71
2021/07/10 01:32:17;;;;;;;53.85;29.90;;;19.60;95.80;;;;;;5009838;28;20183;-70
2021/07/10 01:34:45;;;;;;;;;;;19.50;95.80;;;;;;5011265;28;20405;-72
2021/07/10 01:37:12;;;;;;;;;;;19.50;95.80;;;;;;5008704;28;20042;-70
2021/07/10 01:39:40;;;;;;;;;;;19.50;95.80;;;;;;5009905;28;20366;-71
2021/07/10 01:42:06;;;;;;;;;;;19.50;95.90;;;;;;5008061;28;20005;-70
2021/07/10 01:44:33;;;;;;;;;;;19.40;95.90;;;;;;5010277;28;19958;-71
2021/07/10 01:46:59;;;;;;;;;;;19.40;96.00;;;;;;4995191;28;20000;-70
2021/07/10 01:49:26;;;;;;;;;;;19.40;96.10;;;;;;5007448;28;19957;-73
2021/07/10 01:51:53;;;;;;;;;;;19.40;96.20;;;;;;5013199;28;20001;-70
2021/07/10 01:54:19;;;;;;;;;;;19.40;96.20;;;;;;5005734;28;19991;-71
2021/07/10 01:56:47;;;;;;;;;;;19.40;96.20;;;;;;5009036;28;20006;-72
2021/07/10 01:59:14;;;;;;;;;;;19.40;96.30;;;;;;5009795;28;19956;-72
2021/07/10 02:01:40;;;;;;;;;;;19.40;96.40;;;;;;4988875;28;20768;-71
2021/07/10 02:04:08;;;;;;;;;;;19.40;96.40;;;;;;5006775;28;19964;-70
2021/07/10 02:06:34;;;;;;;;;;;19.40;96.50;;;;;;5012274;28;19999;-70
2021/07/10 02:09:01;;;;;;;;;;;19.30;96.50;;;;;;4989665;28;20026;-71
2021/07/10 02:11:28;;;;;;;;;;;19.30;96.60;;;;;;5012949;28;19955;-71
2021/07/10 02:13:55;;;;;;;;;;;19.30;96.60;;;;;;5011653;28;20387;-71
2021/07/10 02:16:22;;;;;;;;;;;19.30;96.70;;;;;;5011133;28;20466;-71
2021/07/10 02:18:49;;;;;;;56.10;29.75;;;19.30;96.70;;;;;;5009578;28;20801;-71
2021/07/10 02:21:16;;;;;;;52.55;30.80;;;19.30;96.80;;;;;;5011292;28;20551;-69
2021/07/10 02:23:42;;;;;;;55.47;32.03;;;19.30;96.80;;;;;;5009024;28;20331;-69
2021/07/10 02:26:09;;;;;;;58.58;32.00;;;19.30;96.90;;;;;;5005705;28;20311;-69
2021/07/10 02:28:36;;;;;;;57.25;33.22;;;19.20;96.90;;;;;;5006237;28;20258;-70
2021/07/10 02:31:04;;;;;;;60.65;34.15;;;19.20;97.00;;;;;;5008609;28;20816;-71
2021/07/10 02:33:31;;;;;;;58.92;34.22;;;19.20;97.00;;;;;;5008310;28;20205;-70
2021/07/10 02:35:58;;;;;;;63.13;34.67;;;19.20;97.00;;;;;;5007057;28;20220;-71
2021/07/10 02:38:24;;;;;;;63.53;36.40;;;19.20;97.00;;;;;;5009440;28;20224;-70
2021/07/10 02:40:51;;;;;;;66.35;36.65;;;19.20;97.00;;;;;;4988679;28;20239;-70
2021/07/10 02:43:18;;;;;;;61.90;36.72;;;19.10;97.10;;;;;;5010196;28;20196;-70
2021/07/10 02:45:45;;;;;;;63.30;36.78;;;19.10;97.10;;;;;;5007062;28;20205;-70
2021/07/10 02:48:14;;;;;;;62.60;36.80;;;19.00;97.20;;;;;;5013279;28;20203;-72
2021/07/10 02:50:41;;;;;;;63.92;36.08;;;19.00;97.20;;;;;;5009874;28;20265;-70
2021/07/10 02:53:08;;;;;;;67.80;36.63;;;18.90;97.20;;;;;;5009497;28;20200;-70
2021/07/10 02:55:36;;;;;;;69.20;37.70;;;18.90;97.30;;;;;;5007334;28;21208;-70
2021/07/10 02:58:03;;;;;;;67.85;36.88;;;18.90;97.30;;;;;;5007446;28;20259;-70
2021/07/10 03:00:31;;;;;;;67.30;35.80;;;18.80;97.40;;;;;;5007947;28;20227;-71
2021/07/10 03:02:58;;;;;;;69.97;37.42;;;18.90;97.50;;;;;;5006196;28;20323;-69
2021/07/10 03:05:28;;;;;;;70.50;37.65;;;18.80;97.50;;;;;;5004165;28;20208;-71
2021/07/10 03:07:55;;;;;;;69.05;37.28;;;18.80;97.60;;;;;;5010103;28;20236;-71
2021/07/10 03:10:25;;;;;;;68.18;36.45;;;18.80;97.70;;;;;;5009186;28;20677;-70
2021/07/10 03:12:52;;;;;;;67.53;38.20;;;18.80;97.80;;;;;;5009648;28;20576;-72
2021/07/10 03:15:18;;;;;;;71.32;36.97;;;18.80;97.80;;;;;;5010574;28;20220;-72
2021/07/10 03:17:46;;;;;;;74.18;38.28;;;18.80;98.30;;;;;;5009392;28;20263;-72
2021/07/10 03:20:14;;;;;;;73.70;37.38;;;18.90;98.00;;;;;;5007598;28;20224;-72
2021/07/10 03:22:43;;;;;;;69.53;38.10;;;18.80;98.00;;;;;;5011439;28;20695;-71
2021/07/10 03:25:12;;;;;;;69.82;39.28;;;18.90;98.10;;;;;;5008093;28;20220;-71
2021/07/10 03:27:39;;;;;;;68.95;37.88;;;18.90;98.20;;;;;;5008654;28;20245;-72
2021/07/10 03:30:08;;;;;;;69.05;37.70;;;18.90;98.20;;;;;;5005838;28;20205;-71
2021/07/10 03:32:36;;;;;;;71.07;36.65;;;18.90;98.20;;;;;;5008183;28;20254;-72
2021/07/10 03:35:03;;;;;;;72.60;38.38;;;18.90;98.20;;;;;;5005719;28;20586;-69
2021/07/10 03:37:30;;;;;;;72.35;36.83;;;18.90;98.30;;;;;;5007874;28;20623;-70
2021/07/10 03:39:58;;;;;;;69.03;38.55;;;18.90;98.30;;;;;;5010503;28;20200;-72
2021/07/10 03:42:25;;;;;;;70.03;38.67;;;19.00;98.40;;;;;;5014327;28;20199;-72
2021/07/10 03:44:52;;;;;;;72.53;37.63;;;19.00;98.40;;;;;;5012912;28;20193;-71
2021/07/10 03:47:19;;;;;;;65.15;36.55;;;19.00;98.40;;;;;;5004185;28;20287;-74
2021/07/10 03:49:45;;;;;;;68.40;36.38;;;19.00;98.50;;;;;;5011624;28;20267;-70
2021/07/10 03:52:12;;;;;;;69.05;37.75;;;19.00;98.50;;;;;;5013056;28;20228;-69
2021/07/10 03:54:39;;;;;;;63.90;36.22;;;19.10;98.50;;;;;;5007410;28;20290;-71
2021/07/10 03:57:07;;;;;;;65.35;36.30;;;19.10;98.50;;;;;;4997511;28;20232;-71
2021/07/10 03:59:34;;;;;;;68.43;37.25;;;19.10;98.50;;;;;;5010108;28;20274;-71
2021/07/10 04:02:01;;;;;;;62.30;35.05;;;19.10;98.50;;;;;;5012491;28;20342;-69
2021/07/10 04:04:28;;;;;;;63.42;34.78;;;19.10;98.60;;;;;;5010103;28;20205;-70
2021/07/10 04:06:56;;;;;;;64.20;35.80;;;19.10;98.60;;;;;;5012384;28;20212;-70
2021/07/10 04:09:23;;;;;;;62.33;35.90;;;19.10;98.60;;;;;;5011906;28;20209;-70
2021/07/10 04:11:50;;;;;;;63.80;36.53;;;19.10;98.60;;;;;;5011802;28;20232;-69
2021/07/10 04:14:18;;;;;;;60.72;35.15;;;19.10;98.60;;;;;;5010646;28;20204;-68
2021/07/10 04:16:45;;;;;;;58.92;35.72;;;19.10;98.60;;;;;;5016353;28;20224;-71
2021/07/10 04:19:11;;;;;;;65.05;35.60;;;19.10;98.70;;;;;;4995144;28;20212;-71
2021/07/10 04:21:38;;;;;;;63.80;37.15;;;19.20;98.80;;;;;;5015559;28;20232;-72
2021/07/10 04:24:06;;;;;;;64.95;35.95;;;19.20;98.80;;;;;;5009168;28;20262;-71
2021/07/10 04:26:32;;;;;;;66.90;36.60;;;19.20;98.80;;;;;;5007545;28;20279;-68
2021/07/10 04:28:59;;;;;;;63.33;36.55;;;19.20;98.80;;;;;;5011801;28;20266;-72
2021/07/10 04:31:27;;;;;;;63.17;36.13;;;19.20;98.80;;;;;;5011944;28;20318;-72
2021/07/10 04:33:54;;;;;;;59.75;35.15;;;19.20;98.80;;;;;;5009967;28;20232;-70
2021/07/10 04:36:21;;;;;;;63.05;35.95;;;19.20;98.80;;;;;;5009087;28;20220;-69
2021/07/10 04:38:48;;;;;;;64.35;37.83;;;19.20;99.20;;;;;;5014497;28;20231;-71
2021/07/10 04:41:15;;;;;;;73.20;39.60;;;19.20;98.90;;;;;;5009958;28;20208;-68
2021/07/10 04:43:42;;;;;;;66.70;39.80;;;19.30;98.90;;;;;;5008504;28;20208;-68
2021/07/10 04:46:11;;;;;;;67.60;38.75;;;19.30;98.90;;;;;;5010885;28;20224;-69
2021/07/10 04:48:39;;;;;;;66.05;38.42;;;19.30;98.90;;;;;;5011560;28;20212;-70
2021/07/10 04:51:06;;;;;;;70.47;40.15;;;19.30;98.90;;;;;;5011907;28;20235;-70
2021/07/10 04:53:33;;;;;;;70.75;40.28;;;19.30;98.90;;;;;;5006356;28;20203;-71
2021/07/10 04:55:59;;;;;;;69.70;39.97;;;19.30;99.00;;;;;;5012120;28;20603;-71
2021/07/10 04:58:26;;;;;;;67.18;38.80;;;19.30;99.00;;;;;;5010590;28;20204;-70
2021/07/10 05:00:53;;;;;;;66.93;39.90;;;19.30;99.00;;;;;;4999683;28;20656;-69
2021/07/10 05:03:20;;;;;;;66.93;38.45;;;19.30;99.00;;;;;;5011540;28;20332;-70
2021/07/10 05:05:48;;;;;;;66.20;38.28;;;19.30;99.10;;;;;;5008010;28;20200;-70
2021/07/10 05:08:14;;;;;;;61.72;37.35;;;19.40;99.10;;;;;;5013134;28;20229;-70
2021/07/10 05:10:41;;;;;;;65.65;36.85;;;19.30;99.10;;;;;;4990807;28;20267;-70
2021/07/10 05:13:09;;;;;;;64.90;36.50;;;19.40;99.10;;;;;;5010761;28;20236;-67
2021/07/10 05:15:36;;;;;;;61.45;36.10;;;19.40;99.10;;;;;;5009080;28;20220;-69
2021/07/10 05:18:04;;;;;;;60.83;35.88;;;19.40;99.20;;;;;;5008195;28;20750;-70
2021/07/10 05:20:31;;;;;;;59.25;34.42;;;19.40;99.20;;;;;;5008190;28;20236;-69
2021/07/10 05:22:59;;;;;;;58.70;35.85;;;19.40;99.10;;;;;;5006830;28;20267;-70
2021/07/10 05:25:27;;;;;;;55.90;35.13;;;19.50;99.10;;;;;;5005175;28;20254;-69
2021/07/10 05:27:53;;;;;;;54.05;33.47;;;19.50;99.10;;;;;;5006979;28;20636;-69
2021/07/10 05:30:20;;;;;;;56.58;34.35;;;19.50;99.10;;;;;;5002285;28;20665;-71
2021/07/10 05:32:47;;;;;;;53.95;34.55;;;19.60;99.10;;;;;;5009179;28;20223;-67
2021/07/10 05:35:16;;;;;;;55.30;34.28;;;19.50;99.00;;;;;;5009147;28;20228;-68
2021/07/10 05:37:43;;;;;;;48.88;30.05;;;19.60;99.00;;;;;;5011417;28;20219;-69
2021/07/10 05:40:12;;;;;;;37.92;25.70;;;19.60;98.90;;;;;;5006649;28;20208;-69
2021/07/10 05:42:38;;;;;;;45.40;29.75;;;19.60;98.70;;;;;;5004016;28;20243;-70
2021/07/10 05:45:06;;;;;;;43.45;27.98;;;19.60;98.60;;;;;;5006333;28;20209;-69
2021/07/10 05:47:33;;;;;;;30.95;21.60;;;19.70;98.50;;;;;;5009603;28;20294;-71
2021/07/10 05:49:59;;;;;;;29.17;19.40;;;19.70;98.30;;;;;;5007380;28;20251;-70
2021/07/10 05:52:26;;;;;;;38.33;25.45;;;19.70;98.10;;;;;;5009343;28;20934;-70
2021/07/10 05:54:55;;;;;;;41.75;28.88;;;19.70;98.00;;;;;;5004522;28;20657;-70
2021/07/10 05:57:23;;;;;;;47.60;30.42;;;19.70;97.90;;;;;;5006206;28;20616;-69
2021/07/10 05:59:50;;;;;;;55.42;35.08;;;19.70;97.70;;;;;;5012202;28;20214;-69
2021/07/10 06:02:20;;;;;;;50.60;32.15;;;19.80;97.70;;;;;;5007975;28;20219;-67
2021/07/10 06:04:47;;;;;;;53.13;32.60;;;19.80;97.60;;;;;;4989170;28;20240;-70
2021/07/10 06:07:15;;;;;;;51.00;33.72;;;19.80;97.50;;;;;;5012644;28;20204;-69
2021/07/10 06:09:41;;;;;;;51.78;32.97;;;19.80;97.50;;;;;;5007812;28;20520;-68
2021/07/10 06:12:09;;;;;;;45.35;30.25;;;19.90;97.50;;;;;;5001463;28;20208;-70
2021/07/10 06:14:37;;;;;;;47.58;30.58;;;19.90;97.50;;;;;;5009758;28;20208;-69
2021/07/10 06:17:04;;;;;;;39.63;27.50;;;19.90;97.40;;;;;;5012316;28;20223;-69
2021/07/10 06:19:31;;;;;;;41.80;27.83;;;20.00;97.30;;;;;;5006709;28;20209;-69
2021/07/10 06:21:58;;;;;;;45.47;29.60;;;20.00;97.10;;;;;;5013939;28;20290;-70
2021/07/10 06:24:26;;;;;;;42.40;28.77;;;20.10;97.00;;;;;;5008229;28;20267;-64
2021/07/10 06:26:53;;;;;;;45.50;29.13;;;20.10;96.90;;;;;;5009349;28;20243;-68
2021/07/10 06:29:20;;;;;;;43.85;27.77;;;20.10;96.80;;;;;;5008553;28;20283;-65
2021/07/10 06:31:48;;;;;;;49.38;29.05;;;20.10;96.70;;;;;;5011695;28;20717;-66
2021/07/10 06:34:15;;;;;;;41.30;27.98;;;20.10;96.60;;;;;;5006776;28;20205;-65
2021/07/10 06:36:43;;;;;;;31.92;22.95;;;20.10;96.50;;;;;;5013121;28;20231;-64
2021/07/10 06:39:10;;;;;;;33.85;22.48;;;20.10;96.40;;;;;;5006274;28;20212;-65
2021/07/10 06:41:38;;;;;;;35.35;23.35;;;20.10;96.10;;;;;;5010557;28;20600;-65
2021/07/10 06:44:05;;;;;;;37.33;24.75;;;20.10;96.00;;;;;;5006961;28;20253;-64
2021/07/10 06:46:32;;;;;;;42.92;30.35;;;20.10;95.90;;;;;;5012040;28;20246;-64
2021/07/10 06:49:00;;;;;;;38.45;24.98;;;20.10;95.90;;;;;;5006135;28;20681;-65
2021/07/10 06:51:27;;;;;;;36.92;24.48;;;20.10;96.20;;;;;;5011094;28;20615;-66
2021/07/10 06:53:54;;;;;;;37.50;24.98;;;20.10;95.80;;;;;;5009616;28;20212;-65
2021/07/10 06:56:20;;;;;;;41.70;25.52;;;20.10;95.70;;;;;;5010673;28;20216;-66
2021/07/10 06:58:47;;;;;;;42.42;26.42;;;20.10;95.60;;;;;;5008228;28;20668;-65
2021/07/10 07:01:14;;;;;;;45.05;29.13;;;20.10;95.60;;;;;;5005863;28;20254;-65
2021/07/10 07:03:41;;;;;;;42.55;28.27;;;20.10;95.60;;;;;;5009424;28;20262;-64
2021/07/10 07:06:09;;;;;;;41.13;27.20;;;20.10;95.70;;;;;;5010877;28;20893;-65
2021/07/10 07:08:36;;;;;;;43.17;28.52;;;20.10;95.70;;;;;;5011456;28;20260;-66
2021/07/10 07:11:03;;;;;;;44.13;27.75;;;20.10;95.80;;;;;;5009812;28;20727;-67
2021/07/10 07:13:29;;;;;;;43.25;29.08;;;20.10;95.80;;;;;;5010685;28;20228;-65
2021/07/10 07:15:56;;;;;;;43.35;27.15;;;20.10;95.80;;;;;;5010708;28;20208;-65
2021/07/10 07:18:23;;;;;;;44.15;28.58;;;20.10;95.90;;;;;;5012208;28;20240;-65
2021/07/10 07:20:49;;;;;;;40.15;26.42;;;20.10;95.80;;;;;;5006293;28;20493;-65
2021/07/10 07:23:18;;;;;;;44.10;28.88;;;20.10;95.90;;;;;;5008928;28;20263;-65
2021/07/10 07:25:44;;;;;;;45.28;27.92;;;20.10;95.90;;;;;;5008622;28;20630;-65
2021/07/10 07:28:11;;;;;;;44.40;27.27;;;20.20;96.00;;;;;;5011638;28;20241;-64
2021/07/10 07:30:38;;;;;;;44.97;27.52;;;20.20;96.00;;;;;;5009637;28;20259;-64
2021/07/10 07:33:05;;;;;;;41.58;26.60;;;20.30;96.00;;;;;;5009414;28;20227;-65
2021/07/10 07:35:33;;;;;;;41.75;26.60;;;20.30;95.90;;;;;;5005882;28;20197;-64
2021/07/10 07:38:00;;;;;;;40.97;25.48;;;20.30;95.80;;;;;;5010570;28;20228;-65
2021/07/10 07:40:28;;;;;;;46.50;27.92;;;20.40;95.60;;;;;;5006471;28;20212;-64
2021/07/10 07:42:56;;;;;;;41.53;26.27;;;20.40;95.60;;;;;;5002576;28;20728;-64
2021/07/10 07:45:23;;;;;;;43.47;25.75;;;20.40;95.50;;;;;;5006871;28;20251;-64
2021/07/10 07:47:51;;;;;;;39.35;23.92;;;20.40;95.40;;;;;;5010739;28;20608;-64
2021/07/10 07:50:19;;;;;;;42.53;26.63;;;20.40;95.30;;;;;;5008234;28;20196;-70
2021/07/10 07:52:46;;;;;;;39.67;25.17;;;20.40;95.30;;;;;;5009923;28;20204;-69
2021/07/10 07:55:14;;;;;;;39.80;24.08;;;20.40;95.10;;;;;;5008848;28;20231;-68
2021/07/10 07:57:43;;;;;;;36.75;23.65;;;20.40;95.00;;;;;;5011204;28;20614;-70
2021/07/10 08:00:12;;;;;;;37.83;23.30;;;20.40;94.90;;;;;;4992689;28;20724;-69
2021/07/10 08:02:45;;;;;;;42.38;24.27;;;20.50;94.80;;;;;;5003636;28;20210;-70
2021/07/10 08:05:16;;;;;;;44.92;26.35;;;20.40;94.70;;;;;;5012204;28;20199;-70
2021/07/10 08:07:43;;;;;;;43.28;26.00;;;20.50;94.80;;;;;;5010179;28;20593;-70
2021/07/10 08:10:13;;;;;;;43.63;26.05;;;20.50;94.80;;;;;;5006546;28;20239;-70
2021/07/10 08:12:43;;;;;;;41.08;25.13;;;20.50;94.80;;;;;;5010276;28;20208;-68
2021/07/10 08:15:12;;;;;;;38.38;23.02;;;20.50;94.80;;;;;;5005595;28;20208;-70
2021/07/10 08:17:39;;;;;;;37.03;21.67;;;20.50;94.80;;;;;;5011697;28;20598;-71
2021/07/10 08:20:07;;;;;;;28.10;17.67;;;20.50;94.60;;;;;;5006465;28;20259;-72
2021/07/10 08:22:34;;;;;;;25.23;16.40;;;20.60;94.40;;;;;;5010472;28;20295;-70
2021/07/10 08:25:01;;;;;;;25.65;16.77;;;20.60;94.30;;;;;;5006244;28;20259;-69
2021/07/10 08:27:28;;;;;;;29.48;18.27;;;20.70;94.10;;;;;;5009943;28;20746;-71
2021/07/10 08:29:56;;;;;;;31.25;19.08;;;20.70;93.90;;;;;;5007226;28;20208;-69
2021/07/10 08:32:23;;;;;;;34.50;19.85;;;20.80;93.80;;;;;;5010950;28;20261;-71
2021/07/10 08:34:50;;;;;;;34.13;19.80;;;20.80;93.70;;;;;;5006184;28;20295;-69
2021/07/10 08:37:17;;;;;;;34.10;19.77;;;20.80;93.70;;;;;;5013890;28;20703;-70
2021/07/10 08:39:44;;;;;;;36.42;22.48;;;20.90;93.60;;;;;;5012076;28;20254;-70
2021/07/10 08:42:11;;;;;;;35.72;21.65;;;20.90;93.40;;;;;;5011190;28;20668;-70
2021/07/10 08:44:41;;;;;;;38.20;22.80;;;20.90;93.30;;;;;;5010614;28;20213;-70
2021/07/10 08:47:13;;;;;;;33.97;21.98;;;21.00;93.40;;;;;;5011086;28;20200;-69
2021/07/10 08:49:41;;;;;;;36.97;22.42;;;21.00;93.70;;;;;;5009604;28;20729;-70
2021/07/10 08:52:09;;;;;;;33.28;20.95;;;21.00;93.30;;;;;;4994695;28;20201;-71
2021/07/10 08:54:36;;;;;;;26.33;17.52;;;21.10;93.30;;;;;;5006981;28;20558;-69
2021/07/10 08:57:04;;;;;;;22.60;15.85;;;21.10;93.20;;;;;;5010447;28;20212;-71
2021/07/10 08:59:31;;;;;;;29.23;18.02;;;21.10;93.10;;;;;;5012393;28;20200;-70
2021/07/10 09:01:58;;;;;;;29.15;17.00;;;21.10;92.90;;;;;;5010059;28;20259;-70
2021/07/10 09:04:26;;;;;;;26.58;17.90;;;21.20;92.70;;;;;;4991883;28;20237;-70
2021/07/10 09:06:53;;;;;;;37.85;22.33;;;21.30;92.50;;;;;;5012046;28;20653;-69
2021/07/10 09:09:20;;;;;;;42.08;27.17;;;21.30;92.40;;;;;;5010518;28;20228;-65
2021/07/10 09:11:59;;;;;;;40.45;25.52;;;21.30;92.40;;;;;;5014268;28;20212;-67
2021/07/10 09:14:30;;;;;;;40.83;25.42;;;21.30;92.30;;;;;;5011544;28;20205;-64
2021/07/10 09:17:13;;;;;;;36.97;23.75;;;21.30;92.30;;;;;;5013142;28;20248;-66
2021/07/10 09:19:42;;;;;;;35.88;21.33;;;21.30;92.20;;;;;;5006642;28;20274;-65
2021/07/10 09:22:09;;;;;;;39.35;21.92;;;21.30;92.20;;;;;;5014897;28;20259;-66
2021/07/10 09:24:38;;;;;;;39.33;22.20;;;21.30;92.10;;;;;;5011428;28;20294;-67
2021/07/10 09:27:06;;;;;;;38.03;23.05;;;21.30;92.00;;;;;;5005313;28;20224;-65
2021/07/10 09:29:38;;;;;;;39.75;25.27;;;21.30;91.90;;;;;;5009491;28;20208;-67
2021/07/10 09:32:07;;;;;;;37.15;23.88;;;21.30;92.00;;;;;;5011466;28;20207;-66
2021/07/10 09:34:38;;;;;;;44.47;24.90;;;21.30;92.00;;;;;;5008926;28;20212;-67
2021/07/10 09:37:09;;;;;;;37.90;24.10;;;21.30;92.10;;;;;;5010380;28;20209;-68
2021/07/10 09:39:40;;;;;;;44.83;24.05;;;21.30;92.00;;;;;;5011265;28;20207;-67
2021/07/10 09:42:07;;;;;;;41.63;24.17;;;21.30;92.00;;;;;;5006737;28;20237;-67
2021/07/10 09:44:42;;;;;;;38.45;22.58;;;21.40;92.00;;;;;;5008670;28;20239;-67
2021/07/10 09:47:09;;;;;;;38.75;22.05;;;21.40;92.00;;;;;;5010722;28;20957;-65
2021/07/10 09:49:36;;;;;;;38.65;20.55;;;21.40;92.10;;;;;;5009117;28;20227;-67
2021/07/10 09:52:08;;;;;;;31.80;20.23;;;21.40;92.00;;;;;;5014594;28;20224;-67
2021/07/10 09:54:37;;;;;;;29.25;18.35;;;21.50;92.00;;;;;;5004253;28;20247;-68
2021/07/10 09:57:10;;;;;;;29.02;18.42;;;21.50;92.00;;;;;;5009778;28;20615;-65
2021/07/10 09:59:39;;;;;;;32.30;18.15;;;21.60;91.90;;;;;;5007241;28;20259;-68
2021/07/10 10:02:18;;;;;;;32.00;19.40;;;21.60;91.90;;;;;;5010167;28;20204;-68
2021/07/10 10:04:46;;;;;;;32.58;19.55;;;21.70;91.90;;;;;;5007266;28;20212;-68
2021/07/10 10:07:17;;;;;;;34.92;20.40;;;21.80;91.80;;;;;;5011923;28;20254;-69
2021/07/10 10:09:46;;;;;;;35.15;19.52;;;21.80;91.50;;;;;;5010186;28;20669;-68
2021/07/10 10:12:14;;;;;;;34.03;20.52;;;21.90;91.30;;;;;;5015050;28;20665;-67
2021/07/10 10:14:44;;;;;;;32.78;21.42;;;21.90;91.20;;;;;;5007758;28;20255;-66
2021/07/10 10:17:12;;;;;;;31.45;20.15;;;21.90;91.10;;;;;;5011446;28;20768;-64
2021/07/10 10:19:38;;;;;;;31.30;19.30;;;21.90;91.00;;;;;;5007641;28;20236;-66
2021/07/10 10:22:08;;;;;;;28.45;18.20;;;21.90;91.10;;;;;;5010639;28;20208;-68
2021/07/10 10:24:38;;;;;;;33.10;19.70;;;21.90;91.10;;;;;;5004828;28;20255;-67
2021/07/10 10:27:06;;;;;;;31.10;17.55;;;22.00;91.00;;;;;;5002736;28;20750;-67
2021/07/10 10:29:34;;;;;;;28.35;16.40;;;22.00;90.90;;;;;;5006717;28;20244;-67
2021/07/10 10:32:01;;;;;;;27.73;15.18;;;22.10;90.90;;;;;;5011889;28;20255;-66
2021/07/10 10:34:28;;;;;;;24.88;15.60;;;22.20;90.70;;;;;;5008993;28;20298;-67
2021/07/10 10:36:57;;;;;;;26.50;17.98;;;22.30;90.40;;;;;;5010228;28;20200;-68
2021/07/10 10:39:26;;;;;;;26.05;15.30;;;22.30;90.10;;;;;;5009430;28;20205;-66
2021/07/10 10:41:57;;;;;;;21.85;13.88;;;22.40;90.40;;;;;;5013900;28;20200;-68
2021/07/10 10:44:27;;;;;;;23.67;15.55;;;22.50;90.00;;;;;;5006804;28;20280;-67
2021/07/10 10:46:55;;;;;;;20.40;13.38;;;22.60;89.40;;;;;;5009399;28;20195;-68
2021/07/10 10:49:50;;;;;;;19.23;14.20;;;22.70;89.00;;;;;;5004747;28;20215;-67
2021/07/10 10:52:27;;;;;;;22.60;14.32;;;22.80;88.80;;;;;;5009053;28;20224;-68
2021/07/10 10:54:55;;;;;;;21.38;13.90;;;22.90;88.30;;;;;;5007944;28;20310;-68
2021/07/10 10:57:37;;;;;;;24.77;14.95;;;23.00;87.80;;;;;;5012515;28;20227;-68
2021/07/10 11:00:15;;;;;;;22.20;14.52;;;23.00;87.10;;;;;;4992066;28;20209;-67
2021/07/10 11:02:56;;;;;;;26.42;15.55;;;23.10;86.50;;;;;;5009047;28;20258;-69
2021/07/10 11:05:44;;;;;;;22.05;14.73;;;23.10;86.20;;;;;;5004625;28;20700;-69
2021/07/10 11:08:36;;;;;;;19.52;12.52;;;23.10;85.90;;;;;;5011614;28;20205;-67
2021/07/10 11:11:34;;;;;;;23.58;13.40;;;23.10;85.20;;;;;;5009554;28;20838;-64
2021/07/10 11:14:18;;;;;;;23.70;14.30;;;23.10;85.00;;;;;;5009527;28;20227;-66
2021/07/10 11:17:09;;;;;;;29.10;13.65;;;23.10;84.70;;;;;;5010637;28;20204;-65
2021/07/10 11:19:53;;;;;;;19.20;13.05;;;23.10;84.30;;;;;;5004083;28;20216;-66
2021/07/10 11:22:57;;;;;;;18.70;12.50;;;23.10;84.30;;;;;;5012712;28;20619;-67
2021/07/10 11:26:00;;;;;;;20.23;13.25;;;23.20;84.20;;;;;;5006086;28;20283;-66
2021/07/10 11:28:30;;;;;;;26.75;14.85;;;23.30;84.10;;;;;;5008655;28;20220;-66
2021/07/10 11:31:00;;;;;;;19.80;13.77;;;23.30;83.60;;;;;;5004071;28;20201;-68
2021/07/10 11:33:56;;;;;;;37.92;12.52;;;23.30;83.10;;;;;;5003510;28;20255;-66
2021/07/10 11:36:52;;;;;;;20.23;13.13;;;23.40;83.10;;;;;;5006671;28;20203;-65
2021/07/10 11:39:48;;;;;;;22.75;13.85;;;23.40;83.40;;;;;;5009134;28;21157;-66
2021/07/10 11:42:50;;;;;;;19.55;13.18;;;23.40;83.40;;;;;;5007827;28;20204;-64
2021/07/10 11:45:28;;;;;;;21.60;13.35;;;23.50;83.20;;;;;;5005682;28;20208;-65
2021/07/10 11:48:21;;;;;;;19.30;12.93;;;23.60;82.60;;;;;;5008612;28;20208;-66
2021/07/10 11:51:10;;;;;;;15.95;11.02;;;23.60;82.40;;;;;;5007111;28;20735;-66
2021/07/10 11:53:37;;;;;;;16.48;11.70;;;23.70;83.60;;;;;;5002362;28;20731;-65
2021/07/10 11:56:05;;;;;;;22.65;12.20;;;23.80;82.80;;;;;;5006567;28;20204;-66
2021/07/10 11:58:32;;;;;;;19.05;12.30;;;23.90;82.40;;;;;;5008974;28;20231;-65
2021/07/10 12:01:00;;;;;;;17.38;12.07;;;24.10;81.90;;;;;;5010892;28;20204;-67
2021/07/10 12:03:29;;;;;;;17.63;11.48;;;24.20;81.30;;;;;;5013261;28;20637;-68
2021/07/10 12:05:58;;;;;;;20.05;12.32;;;24.30;81.10;;;;;;5007713;28;20673;-67
2021/07/10 12:08:26;;;;;;;14.45;11.07;;;24.40;80.90;;;;;;5014803;28;20593;-67
2021/07/10 12:10:54;;;;;;;14.90;10.63;;;24.50;80.50;;;;;;5010690;28;20236;-66
2021/07/10 12:13:22;;;;;;;15.40;10.20;;;24.60;80.00;;;;;;5015454;28;20239;-67
2021/07/10 12:15:50;;;;;;;12.43;10.13;;;24.70;79.60;;;;;;5014029;28;20213;-66
2021/07/10 12:18:18;;;;;;;15.63;10.23;;;24.70;79.20;;;;;;5013672;28;20331;-67
2021/07/10 12:20:50;;;;;;;16.77;9.20;;;24.80;78.80;;;;;;5013407;28;20210;-65
2021/07/10 12:23:19;;;;;;;14.07;8.90;;;24.80;78.50;;;;;;5013735;28;20204;-65
2021/07/10 12:25:49;;;;;;;12.18;9.15;;;24.80;78.10;;;;;;5009471;28;20287;-66
2021/07/10 12:28:18;;;;;;;13.02;8.75;;;24.70;77.80;;;;;;5010977;28;20229;-69
2021/07/10 12:30:50;;;;;;;12.77;8.75;;;24.70;77.70;;;;;;5015426;28;20259;-65
2021/07/10 12:33:38;;;;;;;14.38;8.90;;;24.70;77.50;;;;;;5012980;28;20266;-65
2021/07/10 12:36:09;;;;;;;14.23;9.55;;;24.60;77.40;;;;;;5011928;28;20197;-66
2021/07/10 12:38:48;;;;;;;13.50;8.85;;;24.60;77.40;;;;;;4996257;28;20220;-66
2021/07/10 12:41:29;;;;;;;13.30;9.60;;;24.60;77.40;;;;;;5012643;28;20224;-65
2021/07/10 12:44:07;;;;;;;13.95;9.55;;;24.50;77.70;;;;;;5010538;28;20258;-68